Time;durP1;ratioP1;P1;durP2;ratioP2;P2;SDS_P1;SDS_P2;PMS_P1;PMS_P2;Temp;Humidity;BMP_temperature;BMP_pressure;BME280_temperature;BME280_humidity;BME280_pressure;Samples;Min_cycle;Max_cycle;Signal;HPM_P1;HPM_P2
2022/11/22 00:01:03;;;;;;;3.72;2.55;;;2.90;99.90;;;;;;5081117;28;20130;-72
2022/11/22 00:03:29;;;;;;;8.15;3.35;;;2.90;99.90;;;;;;5089563;28;20067;-72
2022/11/22 00:05:55;;;;;;;6.72;2.72;;;2.80;99.90;;;;;;5091912;28;20094;-72
2022/11/22 00:08:24;;;;;;;6.60;2.72;;;2.80;99.90;;;;;;5090555;28;20040;-72
2022/11/22 00:10:50;;;;;;;4.80;2.67;;;2.90;99.90;;;;;;5091320;28;20028;-72
2022/11/22 00:13:17;;;;;;;5.05;2.40;;;2.80;99.90;;;;;;5094899;28;20081;-73
2022/11/22 00:15:43;;;;;;;10.98;2.45;;;2.90;99.90;;;;;;5094959;28;20568;-73
2022/11/22 00:18:09;;;;;;;7.72;2.35;;;2.80;99.90;;;;;;5084539;28;20036;-73
2022/11/22 00:20:35;;;;;;;4.35;2.00;;;2.80;99.90;;;;;;5082496;28;20028;-72
2022/11/22 00:23:00;;;;;;;4.03;2.15;;;2.90;99.90;;;;;;5085635;28;20111;-72
2022/11/22 00:25:26;;;;;;;3.13;2.00;;;2.90;99.90;;;;;;5081646;28;20086;-73
2022/11/22 00:27:52;;;;;;;4.15;2.40;;;2.90;99.90;;;;;;5086517;28;20381;-72
2022/11/22 00:30:18;;;;;;;2.15;1.90;;;2.90;99.90;;;;;;5075576;28;20025;-73
2022/11/22 00:32:44;;;;;;;6.00;2.13;;;2.90;99.90;;;;;;5071235;28;20050;-72
2022/11/22 00:35:11;;;;;;;5.35;2.03;;;2.90;99.90;;;;;;5076252;28;20059;-73
2022/11/22 00:37:36;;;;;;;3.08;2.05;;;2.90;99.90;;;;;;5077720;28;20460;-73
2022/11/22 00:40:03;;;;;;;3.63;2.30;;;2.90;99.90;;;;;;5073619;28;20033;-72
2022/11/22 00:42:29;;;;;;;4.95;2.03;;;3.00;99.90;;;;;;5076062;28;20033;-73
2022/11/22 00:44:55;;;;;;;2.80;1.98;;;2.90;99.90;;;;;;5073797;28;20037;-72
2022/11/22 00:47:20;;;;;;;3.22;1.60;;;2.90;99.90;;;;;;5079710;28;20047;-73
2022/11/22 00:49:46;;;;;;;3.50;1.52;;;2.90;99.90;;;;;;5082499;28;20058;-73
2022/11/22 00:52:12;;;;;;;4.68;1.95;;;2.90;99.90;;;;;;5082012;28;20158;-72
2022/11/22 00:54:38;;;;;;;2.58;1.90;;;2.90;99.90;;;;;;5082903;28;20663;-73
2022/11/22 00:57:03;;;;;;;4.65;1.80;;;2.90;99.90;;;;;;5080367;28;20028;-74
2022/11/22 00:59:29;;;;;;;2.00;1.27;;;2.90;99.90;;;;;;5069633;28;20044;-72
2022/11/22 01:01:55;;;;;;;3.03;1.27;;;2.90;99.90;;;;;;5080936;28;20100;-74
2022/11/22 01:04:20;;;;;;;1.70;1.20;;;3.00;99.90;;;;;;5074721;28;20059;-73
2022/11/22 01:06:46;;;;;;;2.20;1.50;;;2.90;99.90;;;;;;5078097;28;20452;-73
2022/11/22 01:09:18;;;;;;;3.10;1.48;;;3.00;99.90;;;;;;5077050;28;20180;-72
2022/11/22 01:11:43;;;;;;;3.83;1.45;;;2.90;99.90;;;;;;5078740;28;20067;-73
2022/11/22 01:14:09;;;;;;;1.55;1.20;;;3.00;99.90;;;;;;5074908;28;20059;-72
2022/11/22 01:16:34;;;;;;;1.80;1.40;;;3.00;99.90;;;;;;5081470;28;20048;-73
2022/11/22 01:19:00;;;;;;;1.42;1.10;;;3.00;99.90;;;;;;5076784;28;20115;-73
2022/11/22 01:21:26;;;;;;;2.97;1.25;;;3.00;99.90;;;;;;5079977;28;20755;-72
2022/11/22 01:23:51;;;;;;;3.40;1.55;;;3.00;99.90;;;;;;5078302;28;20121;-73
2022/11/22 01:26:17;;;;;;;1.52;1.15;;;3.00;99.90;;;;;;5077057;28;20400;-73
2022/11/22 01:28:42;;;;;;;3.80;1.60;;;3.10;99.90;;;;;;5077016;28;20614;-73
2022/11/22 01:31:08;;;;;;;5.47;1.33;;;3.00;99.90;;;;;;5075137;28;20032;-73
2022/11/22 01:33:34;;;;;;;1.55;1.35;;;3.00;99.90;;;;;;5068225;28;20234;-72
2022/11/22 01:35:59;;;;;;;1.58;1.15;;;3.00;99.90;;;;;;5076377;28;20119;-73
2022/11/22 01:38:25;;;;;;;2.53;1.30;;;3.00;99.90;;;;;;5073125;28;20060;-73
2022/11/22 01:40:52;;;;;;;1.13;1.02;;;3.00;99.90;;;;;;5067240;28;20036;-72
2022/11/22 01:43:21;;;;;;;1.50;0.85;;;3.00;99.90;;;;;;5082435;28;20039;-72
2022/11/22 01:45:49;;;;;;;2.63;1.10;;;3.00;99.90;;;;;;5075162;28;20113;-73
2022/11/22 01:48:21;;;;;;;3.17;1.00;;;3.00;99.90;;;;;;5073597;28;20070;-73
2022/11/22 01:50:51;;;;;;;1.40;1.05;;;3.00;99.90;;;;;;5079404;28;20032;-73
2022/11/22 01:53:21;;;;;;;1.15;0.90;;;3.00;99.90;;;;;;5074524;28;20054;-73
2022/11/22 01:55:50;;;;;;;1.38;1.10;;;3.00;99.90;;;;;;5075291;28;20040;-72
2022/11/22 01:58:18;;;;;;;2.13;0.95;;;3.10;99.90;;;;;;5076549;28;20082;-73
2022/11/22 02:00:44;;;;;;;1.55;0.90;;;3.10;99.90;;;;;;5065894;28;20449;-73
2022/11/22 02:03:12;;;;;;;1.25;0.75;;;3.00;99.90;;;;;;5097977;28;20127;-73
2022/11/22 02:05:38;;;;;;;1.52;0.70;;;3.00;99.90;;;;;;5077744;28;20040;-73
2022/11/22 02:08:16;;;;;;;4.03;0.60;;;3.00;99.90;;;;;;5075575;28;20044;-74
2022/11/22 02:10:46;;;;;;;0.60;0.60;;;3.10;99.90;;;;;;5074649;28;20698;-74
2022/11/22 02:13:13;;;;;;;0.95;0.70;;;3.00;99.90;;;;;;5082168;28;20043;-73
2022/11/22 02:15:40;;;;;;;1.25;0.80;;;3.00;99.90;;;;;;5073303;28;20040;-72
2022/11/22 02:18:06;;;;;;;2.78;0.90;;;3.00;99.90;;;;;;5074904;28;20028;-73
2022/11/22 02:20:31;;;;;;;0.63;0.55;;;3.10;99.90;;;;;;5074490;28;20036;-73
2022/11/22 02:23:17;;;;;;;0.77;0.50;;;3.10;99.90;;;;;;5103098;28;20028;-72
2022/11/22 02:26:15;;;;;;;0.93;0.70;;;3.10;99.90;;;;;;5081531;28;20047;-72
2022/11/22 02:28:41;;;;;;;1.48;0.40;;;3.10;99.90;;;;;;5077744;28;20522;-72
2022/11/22 02:31:06;;;;;;;0.75;0.60;;;3.20;99.90;;;;;;5067605;28;20037;-73
2022/11/22 02:33:32;;;;;;;0.45;0.45;;;3.20;99.90;;;;;;5073736;28;20659;-73
2022/11/22 02:35:58;;;;;;;1.02;0.77;;;3.20;99.90;;;;;;5065312;28;20047;-75
2022/11/22 02:38:34;;;;;;;0.55;0.50;;;3.20;99.90;;;;;;5073796;28;20079;-72
2022/11/22 02:41:05;;;;;;;0.75;0.60;;;3.30;99.90;;;;;;5065125;28;20453;-73
2022/11/22 02:43:33;;;;;;;0.65;0.50;;;;;;;;;;5073715;28;20488;-73
2022/11/22 02:46:03;;;;;;;0.68;0.45;;;;;;;;;;5065718;28;20135;-72
2022/11/22 02:48:30;;;;;;;0.70;0.40;;;;;;;;;;5072080;28;20040;-75
2022/11/22 02:50:56;;;;;;;1.95;0.43;;;;;;;;;;5066128;28;20120;-74
2022/11/22 02:53:22;;;;;;;1.00;0.57;;;;;;;;;;5076512;28;20032;-73
2022/11/22 02:55:48;;;;;;;0.65;0.30;;;;;;;;;;5066393;28;20086;-73
2022/11/22 02:58:14;;;;;;;0.90;0.35;;;;;;;;;;5072601;28;20078;-72
2022/11/22 03:00:40;;;;;;;0.68;0.30;;;;;;;;;;5064834;28;20581;-74
2022/11/22 03:03:06;;;;;;;0.95;0.50;;;;;;;;;;5072984;28;20047;-73
2022/11/22 03:05:32;;;;;;;0.75;0.52;;;;;;;;;;5066197;28;20063;-72
2022/11/22 03:07:58;;;;;;;0.70;0.50;;;;;;;;;;5071982;28;20483;-72
2022/11/22 03:10:24;;;;;;;0.45;0.45;;;;;;;;;;5071171;28;20032;-73
2022/11/22 03:12:50;;;;;;;0.30;0.30;;;;;;;;;;5068879;28;20077;-72
2022/11/22 03:15:16;;;;;;;0.32;0.30;;;;;;;;;;5072213;28;20086;-73
2022/11/22 03:17:42;;;;;;;0.73;0.43;;;;;;;;;;5069139;28;20036;-73
2022/11/22 03:20:09;;;;;;;1.02;0.40;;;;;;;;;;5073121;28;20074;-73
2022/11/22 03:22:35;;;;;;;0.75;0.40;;;;;;;;;;5069353;28;20044;-73
2022/11/22 03:25:01;;;;;;;0.55;0.50;;;;;;;;;;5071438;28;20047;-72
2022/11/22 03:27:27;;;;;;;0.30;0.30;;;;;;;;;;5082710;28;20044;-72
2022/11/22 03:29:53;;;;;;;0.57;0.40;;;;;;;;;;5071944;28;20524;-73
2022/11/22 03:32:19;;;;;;;0.30;0.30;;;;;;;;;;5076871;28;20089;-72
2022/11/22 03:34:45;;;;;;;0.60;0.32;;;;;;;;;;5072711;28;20036;-74
2022/11/22 03:37:11;;;;;;;0.52;0.30;;;;;;;;;;5077910;28;20062;-73
2022/11/22 03:39:37;;;;;;;0.22;0.22;;;;;;;;;;5075229;28;20043;-72
2022/11/22 03:42:03;;;;;;;0.28;0.20;;;;;;;;;;5072260;28;20119;-72
2022/11/22 03:44:29;;;;;;;0.30;0.30;;;;;;;;;;5072135;28;20044;-72
2022/11/22 03:46:55;;;;;;;0.20;0.20;;;;;;;;;;5073269;28;20694;-73
2022/11/22 03:49:21;;;;;;;0.40;0.30;;;;;;;;;;5072607;28;20025;-72
2022/11/22 03:51:47;;;;;;;0.38;0.30;;;;;;;;;;5072342;28;20036;-73
2022/11/22 03:54:13;;;;;;;1.42;0.30;;;;;;;;;;5077526;28;20040;-74
2022/11/22 03:56:39;;;;;;;0.47;0.30;;;;;;;;;;5074157;28;20033;-73
2022/11/22 03:59:05;;;;;;;1.20;0.25;;;;;;;;;;5076614;28;20720;-73
2022/11/22 04:01:31;;;;;;;1.17;0.28;;;;;;;;;;5075143;28;20126;-72
2022/11/22 04:03:57;;;;;;;0.47;0.17;;;;;;;;;;5065283;28;20051;-73
2022/11/22 04:06:23;;;;;;;0.30;0.30;;;;;;;;;;5058927;28;20728;-71
2022/11/22 04:08:49;;;;;;;0.30;0.30;;;;;;;;;;5063162;28;20025;-73
2022/11/22 04:11:15;;;;;;;0.20;0.20;;;;;;;;;;5060140;28;20107;-75
2022/11/22 04:16:26;;;;;;;0.70;0.20;;;;;;;;;;5061388;28;20036;-73
2022/11/22 04:18:52;;;;;;;0.57;0.30;;;;;;;;;;5067596;28;20125;-73
2022/11/22 04:21:34;;;;;;;0.17;0.17;;;;;;;;;;5061599;28;20039;-74
2022/11/22 04:26:52;;;;;;;0.43;0.20;;;;;;;;;;5061637;28;20048;-73
2022/11/22 04:29:19;;;;;;;1.45;0.30;;;;;;;;;;5064888;28;20396;-73
2022/11/22 04:34:30;;;;;;;0.63;0.35;;;;;;;;;;5083138;28;20036;-73
2022/11/22 04:36:57;;;;;;;0.30;0.28;;;;;;;;;;5082208;28;20036;-73
2022/11/22 04:39:23;;;;;;;2.05;0.40;;;;;;;;;;5079859;28;20040;-73
2022/11/22 04:44:39;;;;;;;3.67;0.50;;;;;;;;;;5079377;28;20097;-73
2022/11/22 04:44:40;;;;;;;1.08;0.50;;;;;;;;;;5084988;28;20070;-73
2022/11/22 04:47:07;;;;;;;6.72;1.80;;;;;;;;;;5083040;28;20032;-72
2022/11/22 04:49:33;;;;;;;2.08;0.50;;;;;;;;;;5083615;28;20032;-74
2022/11/22 04:54:44;;;;;;;10.15;0.95;;;;;;;;;;5076845;28;20040;-73
2022/11/22 04:57:10;;;;;;;7.00;0.88;;;;;;;;;;5085889;28;20036;-73
2022/11/22 04:59:36;;;;;;;1.88;0.65;;;;;;;;;;5084653;28;20039;-73
2022/11/22 05:02:02;;;;;;;10.60;1.17;;;;;;;;;;5082510;28;20036;-73
2022/11/22 05:04:28;;;;;;;5.15;0.77;;;;;;;;;;5084079;28;20047;-72
2022/11/22 05:06:55;;;;;;;5.60;0.90;;;;;;;;;;5082972;28;20599;-72
2022/11/22 05:09:22;;;;;;;5.03;1.35;;;;;;;;;;5079882;28;20056;-73
2022/11/22 05:11:48;;;;;;;5.80;1.10;;;;;;;;;;5077109;28;20039;-73
2022/11/22 05:14:14;;;;;;;8.55;1.23;;;;;;;;;;5084079;28;20063;-74
2022/11/22 05:16:41;;;;;;;7.28;0.75;;;;;;;;;;5082672;28;20117;-73
2022/11/22 05:19:07;;;;;;;6.95;0.88;;;;;;;;;;5083277;28;20111;-73
2022/11/22 05:21:34;;;;;;;10.00;1.48;;;;;;;;;;5083250;28;20127;-73
2022/11/22 05:24:01;;;;;;;6.57;1.40;;;;;;;;;;5085844;28;20439;-73
2022/11/22 05:26:34;;;;;;;5.50;0.93;;;;;;;;;;5082097;28;20055;-73
2022/11/22 05:29:07;;;;;;;5.45;1.00;;;;;;;;;;5085605;28;20032;-72
2022/11/22 05:31:34;;;;;;;6.85;1.70;;;;;;;;;;5077136;28;20086;-73
2022/11/22 05:34:00;;;;;;;9.50;1.73;;;;;;;;;;5085973;28;20543;-72
2022/11/22 05:36:26;;;;;;;7.60;1.83;;;;;;;;;;5080553;28;20075;-72
2022/11/22 05:38:53;;;;;;;10.60;2.70;;;;;;;;;;5082000;28;20067;-73
2022/11/22 05:41:19;;;;;;;5.60;1.20;;;;;;;;;;5073478;28;20035;-74
2022/11/22 05:43:45;;;;;;;5.30;1.40;;;;;;;;;;5083683;28;20037;-73
2022/11/22 05:46:16;;;;;;;11.35;1.73;;;;;;;;;;5076681;28;20040;-73
2022/11/22 05:48:43;;;;;;;17.95;2.55;;;;;;;;;;5078267;28;20036;-72
2022/11/22 05:51:11;;;;;;;11.30;2.05;;;;;;;;;;5076383;28;20032;-73
2022/11/22 05:53:37;;;;;;;12.05;1.88;;;;;;;;;;5086283;28;20063;-73
2022/11/22 05:56:14;;;;;;;12.30;3.85;;;;;;;;;;5080787;28;20044;-73
2022/11/22 05:58:40;;;;;;;;;;;;;;;;;;5078226;28;20538;-74
2022/11/22 06:01:10;;;;;;;15.57;1.98;;;;;;;;;;5075543;28;19994;-73
2022/11/22 06:03:36;;;;;;;13.35;1.98;;;;;;;;;;5085273;28;20040;-73
2022/11/22 06:06:04;;;;;;;11.13;1.85;;;;;;;;;;5081982;28;20044;-74
2022/11/22 06:08:30;;;;;;;10.68;1.95;;;;;;;;;;5083546;28;20062;-75
2022/11/22 06:11:03;;;;;;;11.40;2.63;;;;;;;;;;5077839;28;20455;-65
2022/11/22 06:13:32;;;;;;;10.05;2.05;;;;;;;;;;5083695;28;20064;-71
2022/11/22 06:16:01;;;;;;;23.23;4.05;;;;;;;;;;5078792;28;20063;-71
2022/11/22 06:18:27;;;;;;;8.65;1.90;;;;;;;;;;5081269;28;20675;-71
2022/11/22 06:20:56;;;;;;;8.73;1.98;;;;;;;;;;5081478;28;20802;-71
2022/11/22 06:23:22;;;;;;;13.43;2.40;;;;;;;;;;5081702;28;20029;-69
2022/11/22 06:25:55;;;;;;;16.77;2.50;;;;;;;;;;5076992;28;20047;-70
2022/11/22 06:28:21;;;;;;;11.43;1.95;;;;;;;;;;5080368;28;20097;-71
2022/11/22 06:30:47;;;;;;;14.00;2.50;;;;;;;;;;5079472;28;20420;-70
2022/11/22 06:33:13;;;;;;;9.48;1.95;;;;;;;;;;5076452;28;20174;-71
2022/11/22 06:35:39;;;;;;;11.95;2.20;;;;;;;;;;5072655;28;20051;-70
2022/11/22 06:38:05;;;;;;;12.40;2.67;;;;;;;;;;5070720;28;20683;-71
2022/11/22 06:40:31;;;;;;;14.18;2.55;;;;;;;;;;5074270;28;20097;-69
2022/11/22 06:42:57;;;;;;;15.35;2.17;;;;;;;;;;5074504;28;20682;-69
2022/11/22 06:45:23;;;;;;;10.68;2.03;;;;;;;;;;5073143;28;20135;-71
2022/11/22 06:47:50;;;;;;;12.68;2.38;;;;;;;;;;5074108;28;20071;-70
2022/11/22 06:50:16;;;;;;;15.88;2.22;;;;;;;;;;5068930;28;20055;-70
2022/11/22 06:52:42;;;;;;;22.30;2.60;;;;;;;;;;5079082;28;20040;-66
2022/11/22 06:55:08;;;;;;;22.17;2.50;;;;;;;;;;5075919;28;20460;-70
2022/11/22 06:57:34;;;;;;;17.40;3.03;;;;;;;;;;5078583;28;20117;-73
2022/11/22 07:00:00;;;;;;;19.45;2.53;;;;;;;;;;5072332;28;20089;-71
2022/11/22 07:02:26;;;;;;;21.17;2.72;;;;;;;;;;5082533;28;20141;-71
2022/11/22 07:04:52;;;;;;;12.85;2.38;;;;;;;;;;5079006;28;20051;-71
2022/11/22 07:07:18;;;;;;;10.90;2.33;;;;;;;;;;5080962;28;20488;-72
2022/11/22 07:09:44;;;;;;;17.05;2.30;;;;;;;;;;5079610;28;20028;-71
2022/11/22 07:12:10;;;;;;;16.63;2.47;;;;;;;;;;5080711;28;20479;-70
2022/11/22 07:14:36;;;;;;;17.58;2.95;;;;;;;;;;5082282;28;20043;-74
2022/11/22 07:17:02;;;;;;;10.98;2.25;;;;;;;;;;5080829;28;20044;-74
2022/11/22 07:19:28;;;;;;;12.30;1.88;;;;;;;;;;5080509;28;20046;-69
2022/11/22 07:21:54;;;;;;;15.10;2.28;;;;;;;;;;5080385;28;20036;-70
2022/11/22 07:24:20;;;;;;;8.30;1.98;;;;;;;;;;5078483;28;21022;-70
2022/11/22 07:26:46;;;;;;;11.80;3.50;;;;;;;;;;5074846;28;20115;-71
2022/11/22 07:29:12;;;;;;;12.48;4.57;;;;;;;;;;5084065;28;20035;-70
2022/11/22 07:31:38;;;;;;;8.15;2.53;;;;;;;;;;5079020;28;20043;-71
2022/11/22 07:34:04;;;;;;;16.23;3.20;;;;;;;;;;5082969;28;20040;-71
2022/11/22 07:36:31;;;;;;;20.40;2.78;;;;;;;;;;5077964;28;20040;-71
2022/11/22 07:38:57;;;;;;;13.18;2.15;;;;;;;;;;5081711;28;20481;-71
2022/11/22 07:41:23;;;;;;;14.68;2.15;;;;;;;;;;5075142;28;20047;-69
2022/11/22 07:43:51;;;;;;;17.20;3.53;;;;;;;;;;5067454;28;20041;-71
2022/11/22 07:46:28;;;;;;;22.30;3.20;;;;;;;;;;5087181;28;20557;-73
2022/11/22 07:48:54;;;;;;;11.20;2.10;;;;;;;;;;5087044;28;20431;-72
2022/11/22 07:51:20;;;;;;;11.82;2.28;;;;;;;;;;5084839;28;20044;-72
2022/11/22 07:53:46;;;;;;;12.35;1.80;;;;;;;;;;5087671;28;20032;-77
2022/11/22 07:56:13;;;;;;;26.13;2.92;;;;;;;;;;5079986;28;20036;-69
2022/11/22 07:58:39;;;;;;;14.30;2.53;;;;;;;;;;5088242;28;20490;-71
2022/11/22 08:01:06;;;;;;;14.60;2.03;;;;;;;;;;5083053;28;20043;-70
2022/11/22 08:03:32;;;;;;;13.88;2.85;;;;;;;;;;5084797;28;20039;-64
2022/11/22 08:05:59;;;;;;;12.75;2.40;;;;;;;;;;5077941;28;20415;-70
2022/11/22 08:08:25;;;;;;;8.35;2.45;;;;;;;;;;5086411;28;20688;-68
2022/11/22 08:10:51;;;;;;;18.25;3.63;;;;;;;;;;5078337;28;20035;-68
2022/11/22 08:13:17;;;;;;;11.98;3.28;;;;;;;;;;5085597;28;20046;-68
2022/11/22 08:15:47;;;;;;;16.15;2.20;;;;;;;;;;5083594;28;20029;-70
2022/11/22 08:18:13;;;;;;;9.90;2.22;;;;;;;;;;5076264;28;20529;-70
2022/11/22 08:20:39;;;;;;;16.05;3.65;;;;;;;;;;5084139;28;20070;-70
2022/11/22 08:23:05;;;;;;;16.92;2.83;;;;;;;;;;5080320;28;20044;-68
2022/11/22 08:25:31;;;;;;;12.70;2.22;;;;;;;;;;5072866;28;20040;-71
2022/11/22 08:27:57;;;;;;;19.63;3.38;;;;;;;;;;5078996;28;20044;-69
2022/11/22 08:30:24;;;;;;;13.32;3.50;;;;;;;;;;5075475;28;20067;-68
2022/11/22 08:32:50;;;;;;;24.35;5.88;;;;;;;;;;5078613;28;20028;-69
2022/11/22 08:35:16;;;;;;;15.70;3.13;;;;;;;;;;5077598;28;20032;-70
2022/11/22 08:37:42;;;;;;;14.15;2.85;;;;;;;;;;5073796;28;20042;-69
2022/11/22 08:40:09;;;;;;;13.05;2.53;;;;;;;;;;5078884;28;20123;-71
2022/11/22 08:42:35;;;;;;;15.93;2.70;;;;;;;;;;5083017;28;20039;-72
2022/11/22 08:45:01;;;;;;;9.82;2.05;;;;;;;;;;5079168;28;20025;-69
2022/11/22 08:47:27;;;;;;;12.30;2.53;;;;;;;;;;5082829;28;20622;-72
2022/11/22 08:49:53;;;;;;;10.15;1.80;;;;;;;;;;5084618;28;20122;-71
2022/11/22 08:52:19;;;;;;;12.30;3.90;;;;;;;;;;5086404;28;20507;-71
2022/11/22 08:54:45;;;;;;;22.75;5.88;;;;;;;;;;5083613;28;20040;-69
2022/11/22 08:57:11;;;;;;;14.27;2.50;;;;;;;;;;5082404;28;20039;-69
2022/11/22 08:59:37;;;;;;;9.02;1.98;;;;;;;;;;5084922;28;20035;-71
2022/11/22 09:02:03;;;;;;;10.20;2.05;;;;;;;;;;5077912;28;20057;-70
2022/11/22 09:04:30;;;;;;;18.80;2.15;;;;;;;;;;5084026;28;20049;-71
2022/11/22 09:06:58;;;;;;;18.67;2.00;;;;;;;;;;5080415;28;20032;-69
2022/11/22 09:09:24;;;;;;;14.50;2.08;;;;;;;;;;5078633;28;20554;-71
2022/11/22 09:11:50;;;;;;;14.75;3.30;;;;;;;;;;5082166;28;20581;-72
2022/11/22 09:14:17;;;;;;;17.75;2.35;;;;;;;;;;5084652;28;20047;-70
2022/11/22 09:16:43;;;;;;;14.38;1.90;;;;;;;;;;5081647;28;20044;-71
2022/11/22 09:19:09;;;;;;;12.40;1.92;;;;;;;;;;5084545;28;20169;-69
2022/11/22 09:21:35;;;;;;;12.55;2.17;;;;;;;;;;5081105;28;20133;-69
2022/11/22 09:24:01;;;;;;;15.60;3.05;;;;;;;;;;5084622;28;20516;-69
2022/11/22 09:26:28;;;;;;;10.55;2.22;;;;;;;;;;5081574;28;20730;-70
2022/11/22 09:28:55;;;;;;;11.60;1.92;;;;;;;;;;5084661;28;20023;-70
2022/11/22 09:31:22;;;;;;;13.52;2.38;;;;;;;;;;5064128;28;20025;-72
2022/11/22 09:33:49;;;;;;;9.82;1.50;;;;;;;;;;5054889;28;20403;-69
2022/11/22 09:36:16;;;;;;;11.05;2.33;;;;;;;;;;5054131;28;20036;-68
2022/11/22 09:38:42;;;;;;;7.50;1.92;;;;;;;;;;5049396;28;20025;-70
2022/11/22 09:41:16;;;;;;;9.25;2.45;;;;;;;;;;5055962;28;20123;-70
2022/11/22 09:43:45;;;;;;;9.57;2.33;;;;;;;;;;5044155;28;20025;-68
2022/11/22 09:46:25;;;;;;;11.60;2.20;;;;;;;;;;5060641;28;20684;-70
2022/11/22 09:49:04;;;;;;;9.23;1.85;;;;;;;;;;5053482;28;20033;-69
2022/11/22 09:51:35;;;;;;;14.95;2.47;;;;;;;;;;5048652;28;20036;-70
2022/11/22 09:54:06;;;;;;;9.05;2.00;;;;;;;;;;5054950;28;20180;-71
2022/11/22 09:56:33;;;;;;;11.60;1.67;;;;;;;;;;5058445;28;20853;-66
2022/11/22 09:59:19;;;;;;;9.15;1.92;;;;;;;;;;5054930;28;20052;-71
2022/11/22 10:01:49;;;;;;;13.95;2.33;;;;;;;;;;5063270;28;20029;-66
2022/11/22 10:04:15;;;;;;;15.52;2.47;;;;;;;;;;5062584;28;20036;-69
2022/11/22 10:06:45;;;;;;;8.23;1.88;;;;;;;;;;5053158;28;20123;-69
2022/11/22 10:09:22;;;;;;;10.02;2.10;;;;;;;;;;5049523;28;20655;-70
2022/11/22 10:12:10;;;;;;;9.52;1.67;;;;;;;;;;5057847;28;20123;-68
2022/11/22 10:14:37;;;;;;;12.48;2.08;;;;;;;;;;5060169;28;20040;-69
2022/11/22 10:17:06;;;;;;;14.68;2.92;;;;;;;;;;5056648;28;20063;-69
2022/11/22 10:19:38;;;;;;;7.65;1.70;;;;;;;;;;5062581;28;20183;-69
2022/11/22 10:22:10;;;;;;;16.75;2.22;;;;;;;;;;5057090;28;20052;-69
2022/11/22 10:24:36;;;;;;;11.20;2.22;;;;;;;;;;5051483;28;20033;-68
2022/11/22 10:27:03;;;;;;;6.47;1.42;;;;;;;;;;5051624;28;20041;-68
2022/11/22 10:29:35;;;;;;;10.07;1.73;;;;;;;;;;5050001;28;20041;-68
2022/11/22 10:32:18;;;;;;;8.45;2.00;;;;;;;;;;5067863;28;20024;-69
2022/11/22 10:34:51;;;;;;;10.80;1.75;;;;;;;;;;5072616;28;20931;-68
2022/11/22 10:37:23;;;;;;;9.10;1.95;;;;;;;;;;5079675;28;20041;-69
2022/11/22 10:39:49;;;;;;;8.25;1.63;;;;;;;;;;5081644;28;20036;-69
2022/11/22 10:42:15;;;;;;;8.70;2.45;;;;;;;;;;5093547;28;20039;-69
2022/11/22 10:45:00;;;;;;;11.38;2.17;;;;;;;;;;5073116;28;20039;-69
2022/11/22 10:47:41;;;;;;;8.38;1.70;;;;;;;;;;5081701;28;20042;-69
2022/11/22 10:50:23;;;;;;;12.20;1.88;;;;;;;;;;5090254;28;20043;-71
2022/11/22 10:53:07;;;;;;;12.85;1.95;;;;;;;;;;5079696;28;20411;-70
2022/11/22 10:55:39;;;;;;;10.15;1.73;;;;;;;;;;5075682;28;20082;-68
2022/11/22 10:58:15;;;;;;;10.57;1.85;;;;;;;;;;5101587;28;20340;-68
2022/11/22 11:00:44;;;;;;;11.45;1.55;;;;;;;;;;5071560;28;20114;-69
2022/11/22 11:03:22;;;;;;;10.63;2.08;;;;;;;;;;5080051;28;20061;-70
2022/11/22 11:05:48;;;;;;;8.30;1.75;;;;;;;;;;5072556;28;20047;-70
2022/11/22 11:08:16;;;;;;;7.90;1.55;;;;;;;;;;5081248;28;20763;-68
2022/11/22 11:10:43;;;;;;;8.65;1.45;;;;;;;;;;5079194;28;20077;-69
2022/11/22 11:13:21;;;;;;;7.15;1.77;;;;;;;;;;5089661;28;20067;-69
2022/11/22 11:15:49;;;;;;;6.80;1.50;;;;;;;;;;5079289;28;20036;-69
2022/11/22 11:18:24;;;;;;;10.13;2.30;;;;;;;;;;5084863;28;20051;-67
2022/11/22 11:20:52;;;;;;;6.53;1.40;;;;;;;;;;5085013;28;20458;-70
2022/11/22 11:23:18;;;;;;;10.63;1.60;;;;;;;;;;5077587;28;20040;-68
2022/11/22 11:25:45;;;;;;;11.00;2.08;;;;;;;;;;5080954;28;20091;-69
2022/11/22 11:28:18;;;;;;;8.82;1.75;;;;;;;;;;5091929;28;20036;-70
2022/11/22 11:30:46;;;;;;;11.60;1.52;;;;;;;;;;5069091;28;20123;-70
2022/11/22 11:33:21;;;;;;;10.20;1.48;;;;;;;;;;5072449;28;20032;-69
2022/11/22 11:35:47;;;;;;;11.30;2.20;;;;;;;;;;5072496;28;20059;-68
2022/11/22 11:38:33;;;;;;;8.65;1.48;;;;;;;;;;5072069;28;20025;-70
2022/11/22 11:41:18;;;;;;;10.87;1.87;;;;;;;;;;5074597;28;20029;-70
2022/11/22 11:43:45;;;;;;;11.05;1.73;;;;;;;;;;5078724;28;20471;-69
2022/11/22 11:46:19;;;;;;;9.55;1.63;;;;;;;;;;5087550;28;20071;-71
2022/11/22 11:48:45;;;;;;;8.70;1.90;;;;;;;;;;5070717;28;20082;-68
2022/11/22 11:51:14;;;;;;;9.07;1.40;;;;;;;;;;5070973;28;20064;-70
2022/11/22 11:53:42;;;;;;;9.77;1.67;;;;;;;;;;5075963;28;20063;-69
2022/11/22 11:56:19;;;;;;;8.48;1.88;;;;;;;;;;5078696;28;20064;-69
2022/11/22 11:58:50;;;;;;;6.35;1.42;;;;;;;;;;5082624;28;20024;-65
2022/11/22 12:01:20;;;;;;;7.30;1.90;;;;;;;;;;5085489;28;20035;-70
2022/11/22 12:04:01;;;;;;;9.63;1.58;;;;;;;;;;5097689;28;20484;-71
2022/11/22 12:06:29;;;;;;;12.52;2.60;;;;;;;;;;5081608;28;20036;-69
2022/11/22 12:08:56;;;;;;;18.80;1.65;;;;;;;;;;5097820;28;20075;-69
2022/11/22 12:11:42;;;;;;;7.63;1.70;;;;;;;;;;5068663;28;20123;-69
2022/11/22 12:14:11;;;;;;;7.88;1.83;;;;;;;;;;5075970;28;20564;-71
2022/11/22 12:16:42;;;;;;;6.65;1.45;;;;;;;;;;5070271;28;20064;-70
2022/11/22 12:19:11;;;;;;;7.13;1.40;;;;;;;;;;5077761;28;20509;-70
2022/11/22 12:21:56;;;;;;;8.52;1.52;;;;;;;;;;5070669;28;20040;-71
2022/11/22 12:25:01;;;;;;;10.40;1.52;;;;;;;;;;5071987;28;20048;-71
2022/11/22 12:27:27;;;;;;;11.50;1.70;;;;;;;;;;5058522;28;20357;-71
2022/11/22 12:29:53;;;;;;;5.45;1.15;;;;;;;;;;5053009;28;20695;-71
2022/11/22 12:32:27;;;;;;;6.85;1.48;;;;;;;;;;5061184;28;20097;-70
2022/11/22 12:34:56;;;;;;;6.88;1.88;;;;;;;;;;5061984;28;20742;-70
2022/11/22 12:37:28;;;;;;;11.20;1.25;;;;;;;;;;5058796;28;20052;-73
2022/11/22 12:39:55;;;;;;;8.60;1.40;;;;;;;;;;5059747;28;20040;-69
2022/11/22 12:42:26;;;;;;;4.45;1.15;;;;;;;;;;5062100;28;20037;-68
2022/11/22 12:45:04;;;;;;;10.55;1.83;;;;;;;;;;5066453;28;20391;-70
2022/11/22 12:47:32;;;;;;;11.20;1.80;;;;;;;;;;5063896;28;20501;-71
2022/11/22 12:50:22;;;;;;;13.65;3.08;;;;;;;;;;5064708;28;20039;-70
2022/11/22 12:52:51;;;;;;;11.15;1.65;;;;;;;;;;5055711;28;20036;-70
2022/11/22 12:55:19;;;;;;;3.55;1.50;;;;;;;;;;5064147;28;20147;-70
2022/11/22 12:57:50;;;;;;;10.63;1.95;;;;;;;;;;5066619;28;20044;-70
2022/11/22 13:00:16;;;;;;;12.95;1.67;;;;;;;;;;5058406;28;20063;-70
2022/11/22 13:02:46;;;;;;;8.95;1.50;;;;;;;;;;5072265;28;20518;-74
2022/11/22 13:05:21;;;;;;;6.68;1.30;;;;;;;;;;5081625;28;20071;-71
2022/11/22 13:08:06;;;;;;;11.07;1.60;;;;;;;;;;5071783;28;20036;-70
2022/11/22 13:10:41;;;;;;;8.52;1.40;;;;;;;;;;5075011;28;20075;-71
2022/11/22 13:13:14;;;;;;;5.07;1.10;;;;;;;;;;5068752;28;20212;-70
2022/11/22 13:15:43;;;;;;;7.18;1.25;;;;;;;;;;5070713;28;20043;-69
2022/11/22 13:18:09;;;;;;;4.78;1.15;;;;;;;;;;5080688;28;20032;-71
2022/11/22 13:20:42;;;;;;;5.25;1.77;;;;;;;;;;5072594;28;20035;-69
2022/11/22 13:23:27;;;;;;;4.22;0.95;;;;;;;;;;5074771;28;20036;-69
2022/11/22 13:26:08;;;;;;;4.68;1.13;;;;;;;;;;5072341;28;20036;-71
2022/11/22 13:28:36;;;;;;;5.70;1.10;;;;;;;;;;5076695;28;20032;-71
2022/11/22 13:31:05;;;;;;;3.47;1.00;;;;;;;;;;5076226;28;20519;-69
2022/11/22 13:33:31;;;;;;;9.27;1.30;;;;;;;;;;5076486;28;20468;-70
2022/11/22 13:36:16;;;;;;;14.43;1.90;;;;;;;;;;5079232;28;20818;-70
2022/11/22 13:38:43;;;;;;;5.80;1.25;;;;;;;;;;5074417;28;20044;-71
2022/11/22 13:41:21;;;;;;;5.30;1.33;;;;;;;;;;5068409;28;20038;-71
2022/11/22 13:43:49;;;;;;;8.82;1.50;;;;;;;;;;5070246;28;20068;-70
2022/11/22 13:46:34;;;;;;;7.22;1.20;;;;;;;;;;5079221;28;20044;-69
2022/11/22 13:49:08;;;;;;;5.72;1.33;;;;;;;;;;5074364;28;20036;-69
2022/11/22 13:51:53;;;;;;;7.20;1.15;;;;;;;;;;5074049;28;20051;-73
2022/11/22 13:54:32;;;;;;;7.28;1.52;;;;;;;;;;5076506;28;20124;-70
2022/11/22 13:57:05;;;;;;;8.65;1.50;;;;;;;;;;5081598;28;20097;-71
2022/11/22 13:59:32;;;;;;;4.72;1.48;;;;;;;;;;5081470;28;20522;-70
2022/11/22 14:01:59;;;;;;;8.60;1.70;;;;;;;;;;5073777;28;20559;-70
2022/11/22 14:04:25;;;;;;;6.68;1.70;;;;;;;;;;5074267;28;20089;-69
2022/11/22 14:06:53;;;;;;;7.85;1.40;;;;;;;;;;5073711;28;20141;-70
2022/11/22 14:09:38;;;;;;;6.00;1.55;;;;;;;;;;5075461;28;20654;-71
2022/11/22 14:12:10;;;;;;;8.50;1.65;;;;;;;;;;5088631;28;20058;-70
2022/11/22 14:14:45;;;;;;;7.63;1.80;;;;;;;;;;5067638;28;20070;-71
2022/11/22 14:17:19;;;;;;;6.03;1.20;;;;;;;;;;5067368;28;20044;-72
2022/11/22 14:20:03;;;;;;;3.95;1.63;;;;;;;;;;5078135;28;20040;-70
2022/11/22 14:22:50;;;;;;;5.68;1.35;;;;;;;;;;5075396;28;20044;-71
2022/11/22 14:25:19;;;;;;;6.22;1.42;;;;;;;;;;5075254;28;20081;-72
2022/11/22 14:27:50;;;;;;;5.80;1.40;;;;;;;;;;5075432;28;20512;-70
2022/11/22 14:30:17;;;;;;;7.22;1.60;;;;;;;;;;5075919;28;20028;-72
2022/11/22 14:32:49;;;;;;;4.00;1.50;;;;;;;;;;5078602;28;20037;-71
2022/11/22 14:35:18;;;;;;;7.05;1.13;;;;;;;;;;5068394;28;20036;-70
2022/11/22 14:37:46;;;;;;;7.15;1.20;;;;;;;;;;5070144;28;20109;-69